createdAt,value
2023-05-24T00:02:18.435Z,15.80
2023-05-24T00:04:45.601Z,15.80
2023-05-24T00:07:12.620Z,15.80
2023-05-24T00:09:39.728Z,15.90
2023-05-24T00:12:06.450Z,15.90
2023-05-24T00:14:33.154Z,15.90
2023-05-24T00:17:00.239Z,16.00
2023-05-24T00:19:27.527Z,15.90
2023-05-24T00:21:54.262Z,15.90
2023-05-24T00:24:21.142Z,15.90
2023-05-24T00:26:48.544Z,15.90
2023-05-24T00:29:15.335Z,15.80
2023-05-24T00:31:42.226Z,15.80
2023-05-24T00:34:08.916Z,15.80
2023-05-24T00:36:38.228Z,15.70
2023-05-24T00:39:05.111Z,15.70
2023-05-24T00:41:31.796Z,15.70
2023-05-24T00:43:58.521Z,15.70
2023-05-24T00:46:29.640Z,15.60
2023-05-24T00:48:57.161Z,15.50
2023-05-24T00:51:24.177Z,15.50
2023-05-24T00:53:51.078Z,15.40
2023-05-24T00:56:18.123Z,15.40
2023-05-24T00:58:45.580Z,15.30
2023-05-24T01:01:12.682Z,15.20
2023-05-24T01:03:39.775Z,15.20
2023-05-24T01:06:07.665Z,15.10
2023-05-24T01:08:35.339Z,15.10
2023-05-24T01:11:11.166Z,15.10
2023-05-24T01:13:40.654Z,15.00
2023-05-24T01:16:20.041Z,15.00
2023-05-24T01:18:54.522Z,15.00
2023-05-24T01:21:40.128Z,15.00
2023-05-24T01:24:09.951Z,14.90
2023-05-24T01:26:48.800Z,14.80
2023-05-24T01:29:16.272Z,14.80
2023-05-24T01:31:43.102Z,14.80
2023-05-24T01:34:09.777Z,14.80
2023-05-24T01:36:36.402Z,14.80
2023-05-24T01:39:05.693Z,14.80
2023-05-24T01:41:43.515Z,14.80
2023-05-24T01:44:13.207Z,14.80
2023-05-24T01:46:39.927Z,14.80
2023-05-24T01:49:09.655Z,14.80
2023-05-24T01:51:57.434Z,14.80
2023-05-24T01:54:25.860Z,14.80
2023-05-24T01:56:57.094Z,14.80
2023-05-24T01:59:24.685Z,14.80
2023-05-24T02:01:51.652Z,14.80
2023-05-24T02:04:18.500Z,14.80
2023-05-24T02:06:45.202Z,14.80
2023-05-24T02:09:11.880Z,14.80
2023-05-24T02:11:38.542Z,14.80
2023-05-24T02:14:05.236Z,14.70
2023-05-24T02:16:32.046Z,14.70
2023-05-24T02:18:58.856Z,14.70
2023-05-24T02:21:25.958Z,14.60
2023-05-24T02:23:52.642Z,14.70
2023-05-24T02:26:19.342Z,14.70
2023-05-24T02:28:46.058Z,14.60
2023-05-24T02:31:13.129Z,14.60
2023-05-24T02:33:40.527Z,14.60
2023-05-24T02:36:07.217Z,14.60
2023-05-24T02:38:33.835Z,14.50
2023-05-24T02:41:00.687Z,14.50
2023-05-24T02:43:27.362Z,14.50
2023-05-24T02:45:54.061Z,14.50
2023-05-24T02:48:20.968Z,14.40
2023-05-24T02:50:47.706Z,14.50
2023-05-24T02:53:14.472Z,14.50
2023-05-24T02:55:44.117Z,14.50
2023-05-24T02:58:12.139Z,14.50
2023-05-24T03:00:38.860Z,14.50
2023-05-24T03:03:05.820Z,14.50
2023-05-24T03:05:32.596Z,14.60
2023-05-24T03:07:59.437Z,14.60
2023-05-24T03:10:26.136Z,14.60
2023-05-24T03:12:52.861Z,14.60
2023-05-24T03:15:19.532Z,14.60
2023-05-24T03:17:46.357Z,14.60
2023-05-24T03:20:13.098Z,14.50
2023-05-24T03:22:39.819Z,14.50
2023-05-24T03:25:08.698Z,14.40
2023-05-24T03:27:36.263Z,14.30
2023-05-24T03:30:03.270Z,14.30
2023-05-24T03:32:29.975Z,14.30
2023-05-24T03:34:57.649Z,14.30
2023-05-24T03:37:24.351Z,14.30
2023-05-24T03:39:50.990Z,14.30
2023-05-24T03:42:17.766Z,14.30
2023-05-24T03:44:44.527Z,14.30
2023-05-24T03:47:11.207Z,14.30
2023-05-24T03:49:37.938Z,14.30
2023-05-24T03:52:04.794Z,14.30
2023-05-24T03:54:31.478Z,14.30
2023-05-24T03:56:58.303Z,14.30
2023-05-24T03:59:24.962Z,14.30
2023-05-24T04:01:51.698Z,14.30
2023-05-24T04:04:18.471Z,14.30
2023-05-24T04:06:45.269Z,14.30
2023-05-24T04:09:11.930Z,14.30
2023-05-24T04:11:38.636Z,14.30
2023-05-24T04:14:05.460Z,14.30
2023-05-24T04:16:34.302Z,14.40
2023-05-24T04:19:03.865Z,14.40
2023-05-24T04:21:31.964Z,14.30
2023-05-24T04:24:01.432Z,14.30
2023-05-24T04:26:28.242Z,14.30
2023-05-24T04:28:54.998Z,14.30
2023-05-24T04:31:21.720Z,14.30
2023-05-24T04:33:50.064Z,14.30
2023-05-24T04:36:17.754Z,14.20
2023-05-24T04:38:46.269Z,14.20
2023-05-24T04:41:13.450Z,14.10
2023-05-24T04:43:40.724Z,14.10
2023-05-24T04:46:09.134Z,14.10
2023-05-24T04:48:36.574Z,14.10
2023-05-24T04:51:03.277Z,14.10
2023-05-24T04:53:30.479Z,14.00
2023-05-24T04:55:57.238Z,14.10
2023-05-24T04:58:23.934Z,14.10
2023-05-24T05:00:50.730Z,14.10
2023-05-24T05:03:17.645Z,14.10
2023-05-24T05:05:45.212Z,14.10
2023-05-24T05:08:12.061Z,14.10
2023-05-24T05:10:38.734Z,14.20
2023-05-24T05:13:05.418Z,14.20
2023-05-24T05:15:32.680Z,14.20
2023-05-24T05:17:59.527Z,14.20
2023-05-24T05:20:26.418Z,14.20
2023-05-24T05:22:53.116Z,14.20
2023-05-24T05:25:19.961Z,14.20
2023-05-24T05:27:46.661Z,14.20
2023-05-24T05:30:13.551Z,14.30
2023-05-24T05:32:40.488Z,14.20
2023-05-24T05:35:07.474Z,14.20
2023-05-24T05:37:34.170Z,14.20
2023-05-24T05:40:01.026Z,14.20
2023-05-24T05:42:27.721Z,14.20
2023-05-24T05:44:54.370Z,14.30
2023-05-24T05:47:21.054Z,14.40
2023-05-24T05:49:47.726Z,14.30
2023-05-24T05:52:14.443Z,14.40
2023-05-24T05:54:41.228Z,14.40
2023-05-24T05:57:10.554Z,14.40
2023-05-24T05:59:38.220Z,14.40
2023-05-24T06:02:06.579Z,14.50
2023-05-24T06:04:33.588Z,14.60
2023-05-24T06:07:00.315Z,14.70
2023-05-24T06:09:27.019Z,14.70
2023-05-24T06:11:53.653Z,14.70
2023-05-24T06:14:22.641Z,14.70
2023-05-24T06:16:49.563Z,14.70
2023-05-24T06:19:16.961Z,14.80
2023-05-24T06:21:48.411Z,14.90
2023-05-24T06:24:15.944Z,14.90
2023-05-24T06:26:42.974Z,15.00
2023-05-24T06:29:09.739Z,15.00
2023-05-24T06:31:36.523Z,15.10
2023-05-24T06:34:04.643Z,15.00
2023-05-24T06:36:42.742Z,14.90
2023-05-24T06:39:10.627Z,15.00
2023-05-24T06:41:37.837Z,15.00
2023-05-24T06:44:04.643Z,15.00
2023-05-24T06:46:31.551Z,15.00
2023-05-24T06:48:58.334Z,15.10
2023-05-24T06:51:25.088Z,15.10
2023-05-24T06:53:52.151Z,15.00
2023-05-24T06:56:18.973Z,15.00
2023-05-24T06:58:45.611Z,15.00
2023-05-24T07:01:12.465Z,15.10
2023-05-24T07:03:39.747Z,15.20
2023-05-24T07:06:06.774Z,15.50
2023-05-24T07:08:33.409Z,15.70
2023-05-24T07:11:00.292Z,15.80
2023-05-24T07:13:27.746Z,15.90
2023-05-24T07:15:54.430Z,15.90
2023-05-24T07:18:21.172Z,16.00
2023-05-24T07:20:48.144Z,16.00
2023-05-24T07:23:14.929Z,16.50
2023-05-24T07:25:41.748Z,16.80
2023-05-24T07:28:08.427Z,17.00
2023-05-24T07:30:35.641Z,17.20
2023-05-24T07:33:03.059Z,17.00
2023-05-24T07:35:31.140Z,16.80
2023-05-24T07:37:57.848Z,16.70
2023-05-24T07:40:25.733Z,16.80
2023-05-24T07:42:52.445Z,16.80
2023-05-24T07:45:19.319Z,16.70
2023-05-24T07:47:46.065Z,16.70
2023-05-24T07:50:12.849Z,16.50
2023-05-24T07:52:39.665Z,16.30
2023-05-24T07:55:06.619Z,16.30
2023-05-24T07:57:33.689Z,16.50
2023-05-24T08:00:07.089Z,16.70
2023-05-24T08:02:35.016Z,16.70
2023-05-24T08:05:01.777Z,16.60
2023-05-24T08:07:28.852Z,16.80
2023-05-24T08:09:55.753Z,17.10
2023-05-24T08:12:22.716Z,17.00
2023-05-24T08:14:49.400Z,16.90
2023-05-24T08:17:16.294Z,17.00
2023-05-24T08:19:43.178Z,17.00
2023-05-24T08:22:10.033Z,17.10
2023-05-24T08:24:36.863Z,17.20
2023-05-24T08:27:04.481Z,17.20
2023-05-24T08:29:31.494Z,17.10
2023-05-24T08:31:58.641Z,17.10
2023-05-24T08:34:26.561Z,17.10
2023-05-24T08:36:53.813Z,17.20
2023-05-24T08:39:20.811Z,17.20
2023-05-24T08:41:57.410Z,17.40
2023-05-24T08:44:43.151Z,17.60
2023-05-24T08:47:12.999Z,17.40
2023-05-24T08:49:40.755Z,17.20
2023-05-24T08:52:07.727Z,17.40
2023-05-24T08:54:36.530Z,17.90
2023-05-24T08:57:03.422Z,18.20
2023-05-24T08:59:30.326Z,18.20
2023-05-24T09:01:57.475Z,18.10
2023-05-24T09:04:25.553Z,18.30
2023-05-24T09:06:53.077Z,18.50
2023-05-24T09:09:21.949Z,18.40
2023-05-24T09:11:51.987Z,18.30
2023-05-24T09:14:18.754Z,18.20
2023-05-24T09:16:45.812Z,18.00
2023-05-24T09:19:13.083Z,17.90
2023-05-24T09:21:40.379Z,17.90
2023-05-24T09:24:11.330Z,17.90
2023-05-24T09:26:38.061Z,17.80
2023-05-24T09:29:08.338Z,17.80
2023-05-24T09:31:35.979Z,17.90
2023-05-24T09:34:03.172Z,17.90
2023-05-24T09:36:36.920Z,18.00
2023-05-24T09:39:09.168Z,18.10
2023-05-24T09:41:36.356Z,18.00
2023-05-24T09:44:03.632Z,17.90
2023-05-24T09:46:35.261Z,18.00
2023-05-24T09:49:04.067Z,18.20
2023-05-24T09:51:31.209Z,18.40
2023-05-24T09:53:58.400Z,18.70
2023-05-24T09:56:25.156Z,18.70
2023-05-24T09:58:51.856Z,18.80
2023-05-24T10:01:19.189Z,18.70
2023-05-24T10:03:52.886Z,18.80
2023-05-24T10:06:20.419Z,18.70
2023-05-24T10:08:48.976Z,18.90
2023-05-24T10:11:15.700Z,18.90
2023-05-24T10:13:42.343Z,19.00
2023-05-24T10:16:08.986Z,18.90
2023-05-24T10:18:35.746Z,18.90
2023-05-24T10:21:07.206Z,18.80
2023-05-24T10:23:34.068Z,18.90
2023-05-24T10:26:19.553Z,18.80
2023-05-24T10:28:48.883Z,19.10
2023-05-24T10:31:17.716Z,19.20
2023-05-24T10:33:46.689Z,19.40
2023-05-24T10:36:14.235Z,19.50
2023-05-24T10:38:41.228Z,19.40
2023-05-24T10:41:08.491Z,19.10
2023-05-24T10:43:36.546Z,18.90
2023-05-24T10:46:06.800Z,18.90
2023-05-24T10:48:36.206Z,18.90
2023-05-24T10:51:21.652Z,18.90
2023-05-24T10:53:49.587Z,19.00
2023-05-24T10:56:17.099Z,19.10
2023-05-24T10:58:46.129Z,19.20
2023-05-24T11:01:27.183Z,19.40
2023-05-24T11:04:05.476Z,19.50
2023-05-24T11:06:50.747Z,19.60
2023-05-24T11:09:17.631Z,20.00
2023-05-24T11:11:45.665Z,19.70
2023-05-24T11:14:12.783Z,19.70
2023-05-24T11:16:40.346Z,19.70
2023-05-24T11:19:22.597Z,19.50
2023-05-24T11:21:50.407Z,19.00
2023-05-24T11:24:20.773Z,18.50
2023-05-24T11:26:47.559Z,18.40
2023-05-24T11:29:17.690Z,18.40
2023-05-24T11:31:58.180Z,18.20
2023-05-24T11:34:27.186Z,18.00
2023-05-24T11:36:55.285Z,17.90
2023-05-24T11:39:23.660Z,17.80
2023-05-24T11:41:50.543Z,17.70
2023-05-24T11:44:19.249Z,17.70
2023-05-24T11:46:46.338Z,17.60
2023-05-24T11:49:16.535Z,17.50
2023-05-24T11:51:43.346Z,17.40
2023-05-24T11:54:10.263Z,17.30
2023-05-24T11:56:37.085Z,17.20
2023-05-24T11:59:17.494Z,17.10
2023-05-24T12:01:44.610Z,17.10
2023-05-24T12:04:11.785Z,17.00
2023-05-24T12:06:39.784Z,17.00
2023-05-24T12:09:10.913Z,17.00
2023-05-24T12:11:46.133Z,16.90
2023-05-24T12:14:14.207Z,16.90
2023-05-24T12:16:44.438Z,16.80
2023-05-24T12:19:31.769Z,16.70
2023-05-24T12:21:59.886Z,16.70
2023-05-24T12:24:27.321Z,16.70
2023-05-24T12:26:58.054Z,16.60
2023-05-24T12:29:24.732Z,16.60
2023-05-24T12:31:52.352Z,16.60
2023-05-24T12:34:20.164Z,16.50
2023-05-24T12:36:47.761Z,16.50
2023-05-24T12:39:18.032Z,16.50
2023-05-24T12:41:45.443Z,16.40
2023-05-24T12:44:12.302Z,16.40
2023-05-24T12:46:39.152Z,16.40
2023-05-24T12:49:05.959Z,16.30
2023-05-24T12:51:32.883Z,16.30
2023-05-24T12:54:01.913Z,16.30
2023-05-24T12:56:28.697Z,16.30
2023-05-24T12:58:55.778Z,16.30
2023-05-24T13:01:22.866Z,16.30
2023-05-24T13:03:49.817Z,16.30
2023-05-24T13:06:16.510Z,16.30
2023-05-24T13:08:43.564Z,16.20
2023-05-24T13:11:10.467Z,16.20
2023-05-24T13:13:38.297Z,16.20
2023-05-24T13:16:08.992Z,16.10
2023-05-24T13:18:35.758Z,16.20
2023-05-24T13:21:03.969Z,16.20
2023-05-24T13:23:31.213Z,16.30
2023-05-24T13:25:57.941Z,16.20
2023-05-24T13:28:24.732Z,16.20
2023-05-24T13:30:51.580Z,16.10
2023-05-24T13:33:18.381Z,16.00
2023-05-24T13:35:45.343Z,16.00
2023-05-24T13:38:12.940Z,16.00
2023-05-24T13:40:41.805Z,16.00
2023-05-24T13:43:08.710Z,15.90
2023-05-24T13:45:35.437Z,15.90
2023-05-24T13:48:05.521Z,15.70
2023-05-24T13:50:35.779Z,15.30
2023-05-24T13:53:03.544Z,15.30
2023-05-24T13:55:32.267Z,15.20
2023-05-24T13:57:59.049Z,15.10
2023-05-24T14:00:26.000Z,15.20
2023-05-24T14:02:52.807Z,15.10
2023-05-24T14:05:27.413Z,15.20
2023-05-24T14:07:55.648Z,15.20
2023-05-24T14:10:22.477Z,15.10
2023-05-24T14:13:03.487Z,15.10
2023-05-24T14:15:36.165Z,15.10
2023-05-24T14:18:07.706Z,15.10
2023-05-24T14:20:37.757Z,15.00
2023-05-24T14:23:05.038Z,15.00
2023-05-24T14:25:32.132Z,15.00
2023-05-24T14:27:59.285Z,14.90
2023-05-24T14:30:26.392Z,14.90
2023-05-24T14:32:53.126Z,14.90
2023-05-24T14:35:20.034Z,14.70
2023-05-24T14:37:46.807Z,14.70
2023-05-24T14:40:13.680Z,14.70
2023-05-24T14:42:41.121Z,14.60
2023-05-24T14:45:08.135Z,14.60
2023-05-24T14:47:34.885Z,14.60
2023-05-24T14:50:01.562Z,14.60
2023-05-24T14:52:28.234Z,14.60
2023-05-24T14:54:54.896Z,14.60
2023-05-24T14:57:21.914Z,14.60
2023-05-24T14:59:48.627Z,14.50
2023-05-24T15:02:15.352Z,14.50
2023-05-24T15:04:42.063Z,14.50
2023-05-24T15:07:09.702Z,14.60
2023-05-24T15:09:36.370Z,14.60
2023-05-24T15:12:05.088Z,14.60
2023-05-24T15:14:31.811Z,14.60
2023-05-24T15:16:58.578Z,14.60
2023-05-24T15:19:25.981Z,14.50
2023-05-24T15:21:52.617Z,14.60
2023-05-24T15:24:19.273Z,14.60
2023-05-24T15:26:45.968Z,14.60
2023-05-24T15:29:12.812Z,14.60
2023-05-24T15:31:39.655Z,14.50
2023-05-24T15:34:06.419Z,14.50
2023-05-24T15:36:33.274Z,14.50
2023-05-24T15:39:02.812Z,14.50
2023-05-24T15:41:29.530Z,14.50
2023-05-24T15:43:56.336Z,14.40
2023-05-24T15:46:23.123Z,14.50
2023-05-24T15:48:49.827Z,14.40
2023-05-24T15:53:46.084Z,14.40
2023-05-24T15:56:12.802Z,14.40
2023-05-24T15:58:39.639Z,14.30
2023-05-24T16:01:06.411Z,14.30
2023-05-24T16:03:33.238Z,14.20
2023-05-24T16:06:00.019Z,14.30
2023-05-24T16:08:28.464Z,14.30
2023-05-24T16:10:55.467Z,14.30
2023-05-24T16:13:22.209Z,14.30
2023-05-24T16:15:52.539Z,14.30
2023-05-24T16:18:22.471Z,14.20
2023-05-24T16:20:50.146Z,14.30
2023-05-24T16:23:17.378Z,14.40
2023-05-24T16:25:44.389Z,14.40
2023-05-24T16:28:11.072Z,14.50
2023-05-24T16:30:37.817Z,14.50
2023-05-24T16:33:04.744Z,14.50
2023-05-24T16:35:31.549Z,14.60
2023-05-24T16:37:58.243Z,14.60
2023-05-24T16:40:24.937Z,14.60
2023-05-24T16:42:53.654Z,14.70
2023-05-24T16:45:20.627Z,14.70
2023-05-24T16:47:47.494Z,14.80
2023-05-24T16:50:17.203Z,14.80
2023-05-24T16:52:44.314Z,14.80
2023-05-24T16:55:11.590Z,14.90
2023-05-24T16:57:38.352Z,14.90
2023-05-24T17:00:05.725Z,14.90
2023-05-24T17:02:34.097Z,14.90
2023-05-24T17:05:01.072Z,14.90
2023-05-24T17:07:27.993Z,14.90
2023-05-24T17:09:54.748Z,14.90
2023-05-24T17:12:22.026Z,15.00
2023-05-24T17:14:48.795Z,15.00
2023-05-24T17:17:16.338Z,15.00
2023-05-24T17:19:43.007Z,15.00
2023-05-24T17:22:11.163Z,15.00
2023-05-24T17:24:37.951Z,14.90
2023-05-24T17:27:05.094Z,14.90
2023-05-24T17:29:35.125Z,14.90
2023-05-24T17:32:02.210Z,14.90
2023-05-24T17:34:29.036Z,15.00
2023-05-24T17:36:55.708Z,15.00
2023-05-24T17:39:23.821Z,14.90
2023-05-24T17:41:50.642Z,14.90
2023-05-24T17:44:17.403Z,14.90
2023-05-24T17:46:44.482Z,14.90
2023-05-24T17:49:14.023Z,14.90
2023-05-24T17:51:40.727Z,14.90
2023-05-24T17:54:07.451Z,14.90
2023-05-24T17:56:34.130Z,14.80
2023-05-24T17:59:00.757Z,14.80
2023-05-24T18:01:28.895Z,14.80
2023-05-24T18:03:57.412Z,14.80
2023-05-24T18:06:24.146Z,14.70
2023-05-24T18:08:50.842Z,14.70
2023-05-24T18:11:17.567Z,14.70
2023-05-24T18:13:44.375Z,14.70
2023-05-24T18:16:11.540Z,14.70
2023-05-24T18:18:38.558Z,14.60
2023-05-24T18:21:05.885Z,14.60
2023-05-24T18:23:34.188Z,14.60
2023-05-24T18:26:03.120Z,14.60
2023-05-24T18:28:30.058Z,14.60
2023-05-24T18:30:56.835Z,14.60
2023-05-24T18:33:24.520Z,14.50
2023-05-24T18:35:51.426Z,14.50
2023-05-24T18:38:18.076Z,14.50
2023-05-24T18:40:44.792Z,14.50
2023-05-24T18:43:11.473Z,14.50
2023-05-24T18:45:38.216Z,14.50
2023-05-24T18:48:06.103Z,14.40
2023-05-24T18:50:32.992Z,14.40
2023-05-24T18:52:59.776Z,14.40
2023-05-24T18:55:26.524Z,14.30
2023-05-24T18:57:53.203Z,14.30
2023-05-24T19:00:22.759Z,14.30
2023-05-24T19:02:50.136Z,14.30
2023-05-24T19:05:16.968Z,14.30
2023-05-24T19:07:43.750Z,14.20
2023-05-24T19:10:10.728Z,14.00
2023-05-24T19:12:37.459Z,13.90
2023-05-24T19:15:04.275Z,13.90
2023-05-24T19:17:32.808Z,14.00
2023-05-24T19:19:59.580Z,14.00
2023-05-24T19:22:27.735Z,14.00
2023-05-24T19:24:55.976Z,13.90
2023-05-24T19:27:22.844Z,13.90
2023-05-24T19:29:49.556Z,13.80
2023-05-24T19:32:16.666Z,13.90
2023-05-24T19:34:43.577Z,13.90
2023-05-24T19:37:10.374Z,14.00
2023-05-24T19:39:37.539Z,14.00
2023-05-24T19:42:04.389Z,14.00
2023-05-24T19:44:31.277Z,14.00
2023-05-24T19:46:57.948Z,14.00
2023-05-24T19:49:24.622Z,14.00
2023-05-24T19:51:51.818Z,14.00
2023-05-24T19:54:18.523Z,13.90
2023-05-24T19:56:49.736Z,13.90
2023-05-24T19:59:16.884Z,13.80
2023-05-24T20:01:43.575Z,13.90
2023-05-24T20:04:11.145Z,13.80
2023-05-24T20:06:38.617Z,13.80
2023-05-24T20:09:05.680Z,13.80
2023-05-24T20:11:32.354Z,13.80
2023-05-24T20:14:00.210Z,13.80
2023-05-24T20:16:27.357Z,13.80
2023-05-24T20:18:54.219Z,13.80
2023-05-24T20:21:21.154Z,13.80
2023-05-24T20:23:49.815Z,13.90
2023-05-24T20:26:16.469Z,13.90
2023-05-24T20:28:43.241Z,13.90
2023-05-24T20:31:09.935Z,13.90
2023-05-24T20:33:38.462Z,13.80
2023-05-24T20:36:05.534Z,13.90
2023-05-24T20:38:32.256Z,13.90
2023-05-24T20:40:59.597Z,13.90
2023-05-24T20:43:26.312Z,13.80
2023-05-24T20:45:53.083Z,13.90
2023-05-24T20:48:19.973Z,13.80
2023-05-24T20:50:47.025Z,13.80
2023-05-24T20:53:13.981Z,13.70
2023-05-24T20:55:40.833Z,13.60
2023-05-24T20:58:07.634Z,13.50
2023-05-24T21:00:34.459Z,13.40
2023-05-24T21:03:01.362Z,13.40
2023-05-24T21:05:28.165Z,13.40
2023-05-24T21:07:54.985Z,13.40
2023-05-24T21:10:21.767Z,13.30
2023-05-24T21:12:49.047Z,13.40
2023-05-24T21:15:15.938Z,13.40
2023-05-24T21:17:42.693Z,13.40
2023-05-24T21:20:09.642Z,13.40
2023-05-24T21:22:36.442Z,13.40
2023-05-24T21:25:04.091Z,13.40
2023-05-24T21:27:30.790Z,13.40
2023-05-24T21:29:57.599Z,13.40
2023-05-24T21:32:24.276Z,13.40
2023-05-24T21:34:51.045Z,13.40
2023-05-24T21:37:17.700Z,13.40
2023-05-24T21:39:44.676Z,13.40
2023-05-24T21:42:11.409Z,13.50
2023-05-24T21:44:38.093Z,13.50
2023-05-24T21:47:05.202Z,13.50
2023-05-24T21:49:32.066Z,13.50
2023-05-24T21:51:58.759Z,13.40
2023-05-24T21:54:25.532Z,13.40
2023-05-24T21:56:52.250Z,13.30
2023-05-24T21:59:19.200Z,13.30
2023-05-24T22:01:46.033Z,13.20
2023-05-24T22:04:12.950Z,13.20
2023-05-24T22:06:41.496Z,13.30
2023-05-24T22:09:11.721Z,13.30
2023-05-24T22:11:38.475Z,13.30
2023-05-24T22:14:05.162Z,13.30
2023-05-24T22:16:31.935Z,13.40
2023-05-24T22:18:58.629Z,13.40
2023-05-24T22:21:26.245Z,13.50
2023-05-24T22:23:53.012Z,13.50
2023-05-24T22:26:19.739Z,13.50
2023-05-24T22:28:50.718Z,13.40
2023-05-24T22:31:18.161Z,13.30
2023-05-24T22:33:44.935Z,13.30
2023-05-24T22:36:12.500Z,13.30
2023-05-24T22:38:39.727Z,13.30
2023-05-24T22:41:06.562Z,13.30
2023-05-24T22:43:33.283Z,13.30
2023-05-24T22:45:59.993Z,13.30
2023-05-24T22:48:26.831Z,13.30
2023-05-24T22:50:57.135Z,13.30
2023-05-24T22:53:24.014Z,13.30
2023-05-24T22:55:51.067Z,13.20
2023-05-24T22:58:21.478Z,13.20
2023-05-24T23:00:48.472Z,13.10
2023-05-24T23:03:15.177Z,13.10
2023-05-24T23:05:42.294Z,13.10
2023-05-24T23:08:12.996Z,13.10
2023-05-24T23:10:45.591Z,13.10
2023-05-24T23:13:13.422Z,13.10
2023-05-24T23:15:40.554Z,13.10
2023-05-24T23:18:08.061Z,13.10
2023-05-24T23:20:36.184Z,13.10
2023-05-24T23:23:05.978Z,13.10
2023-05-24T23:25:33.037Z,13.00
2023-05-24T23:28:00.180Z,13.00
2023-05-24T23:30:27.149Z,13.00
2023-05-24T23:32:53.882Z,13.00
2023-05-24T23:35:20.825Z,13.00
2023-05-24T23:37:47.500Z,13.10
2023-05-24T23:40:14.170Z,13.10
2023-05-24T23:42:40.952Z,13.10
2023-05-24T23:45:07.738Z,13.00
2023-05-24T23:47:34.445Z,13.00
2023-05-24T23:50:01.213Z,13.10
2023-05-24T23:52:28.295Z,13.10
2023-05-24T23:54:54.988Z,13.10
2023-05-24T23:57:21.935Z,13.10
2023-05-24T23:59:48.714Z,13.10
